createdAt,value
2022-09-24T00:02:21.455Z,84.47
2022-09-24T00:04:49.571Z,84.43
2022-09-24T00:07:17.697Z,84.57
2022-09-24T00:09:45.817Z,84.54
2022-09-24T00:12:15.294Z,84.68
2022-09-24T00:14:43.694Z,85.08
2022-09-24T00:17:11.887Z,84.53
2022-09-24T00:19:40.363Z,84.92
2022-09-24T00:22:08.497Z,84.90
2022-09-24T00:24:53.979Z,84.84
2022-09-24T00:27:23.439Z,85.10
2022-09-24T00:29:51.620Z,85.37
2022-09-24T00:32:20.009Z,85.27
2022-09-24T00:34:48.132Z,85.21
2022-09-24T00:37:16.254Z,85.10
2022-09-24T00:39:45.516Z,85.09
2022-09-24T00:42:14.311Z,85.01
2022-09-24T00:44:56.298Z,85.34
2022-09-24T00:47:32.351Z,85.14
2022-09-24T00:50:09.716Z,85.08
2022-09-24T00:52:42.827Z,85.42
2022-09-24T00:55:12.066Z,85.18
2022-09-24T00:57:41.250Z,85.56
2022-09-24T01:00:13.190Z,85.35
2022-09-24T01:02:46.295Z,85.49
2022-09-24T01:05:15.920Z,85.62
2022-09-24T01:07:46.912Z,85.61
2022-09-24T01:10:36.099Z,86.14
2022-09-24T01:13:14.984Z,86.45
2022-09-24T01:15:50.382Z,86.45
2022-09-24T01:18:29.758Z,86.38
2022-09-24T01:21:30.274Z,86.22
2022-09-24T01:24:26.028Z,86.11
2022-09-24T01:27:03.887Z,86.72
2022-09-24T01:29:44.021Z,86.38
2022-09-24T01:32:20.166Z,86.89
2022-09-24T01:34:54.864Z,86.35
2022-09-24T01:37:27.018Z,86.38
2022-09-24T01:39:57.615Z,86.69
2022-09-24T01:42:30.455Z,86.95
2022-09-24T01:45:02.607Z,86.80
2022-09-24T01:47:35.342Z,86.58
2022-09-24T01:50:05.803Z,86.87
2022-09-24T01:52:42.381Z,87.29
2022-09-24T01:55:15.926Z,87.45
2022-09-24T01:57:49.810Z,87.14
2022-09-24T02:00:21.999Z,87.43
2022-09-24T02:02:57.429Z,87.40
2022-09-24T02:05:32.514Z,87.80
2022-09-24T02:08:08.477Z,87.54
2022-09-24T02:10:46.306Z,88.06
2022-09-24T02:13:17.610Z,87.47
2022-09-24T02:15:51.996Z,87.44
2022-09-24T02:18:26.937Z,87.88
2022-09-24T02:20:56.434Z,87.72
2022-09-24T02:23:27.252Z,87.91
2022-09-24T02:26:02.006Z,88.29
2022-09-24T02:28:30.841Z,87.80
2022-09-24T02:31:06.541Z,88.37
2022-09-24T02:33:55.451Z,87.65
2022-09-24T02:36:24.990Z,87.97
2022-09-24T02:38:53.322Z,87.69
2022-09-24T02:41:23.957Z,88.03
2022-09-24T02:43:52.472Z,88.09
2022-09-24T02:46:22.131Z,88.13
2022-09-24T02:48:50.612Z,88.55
2022-09-24T02:51:18.748Z,88.70
2022-09-24T02:53:46.937Z,88.67
2022-09-24T02:56:15.038Z,88.36
2022-09-24T02:58:43.195Z,88.57
2022-09-24T03:01:12.195Z,88.59
2022-09-24T03:03:41.765Z,88.45
2022-09-24T03:06:10.811Z,88.48
2022-09-24T03:08:39.229Z,88.58
2022-09-24T03:11:07.478Z,88.64
2022-09-24T03:13:35.774Z,88.86
2022-09-24T03:16:04.198Z,89.05
2022-09-24T03:18:32.433Z,88.76
2022-09-24T03:21:04.487Z,89.17
2022-09-24T03:23:33.020Z,89.19
2022-09-24T03:26:01.266Z,88.88
2022-09-24T03:28:30.039Z,88.85
2022-09-24T03:31:00.197Z,89.06
2022-09-24T03:33:30.588Z,88.76
2022-09-24T03:36:01.743Z,88.53
2022-09-24T03:38:30.692Z,88.60
2022-09-24T03:40:59.382Z,88.97
2022-09-24T03:43:28.104Z,88.63
2022-09-24T03:45:56.798Z,89.12
2022-09-24T03:48:26.227Z,88.52
2022-09-24T03:50:55.138Z,88.45
2022-09-24T03:53:24.821Z,88.24
2022-09-24T03:55:57.681Z,88.08
2022-09-24T03:58:26.761Z,88.13
2022-09-24T04:00:55.436Z,88.74
2022-09-24T04:03:24.053Z,88.75
2022-09-24T04:05:52.541Z,88.17
2022-09-24T04:08:21.078Z,88.98
2022-09-24T04:10:52.307Z,88.95
2022-09-24T04:13:21.360Z,89.09
2022-09-24T04:15:51.285Z,89.44
2022-09-24T04:18:19.792Z,88.77
2022-09-24T04:20:50.999Z,88.99
2022-09-24T04:23:19.761Z,89.60
2022-09-24T04:25:47.983Z,89.36
2022-09-24T04:28:17.556Z,89.64
2022-09-24T04:30:45.810Z,89.20
2022-09-24T04:33:15.347Z,89.76
2022-09-24T04:35:43.858Z,89.93
2022-09-24T04:38:12.143Z,89.64
2022-09-24T04:40:40.914Z,89.89
2022-09-24T04:43:09.229Z,89.99
2022-09-24T04:45:39.987Z,90.11
2022-09-24T04:48:08.231Z,90.22
2022-09-24T04:50:37.712Z,90.24
2022-09-24T04:53:08.058Z,90.34
2022-09-24T04:55:37.087Z,90.56
2022-09-24T04:58:05.207Z,90.52
2022-09-24T05:00:33.947Z,90.57
2022-09-24T05:03:04.662Z,90.51
2022-09-24T05:05:33.973Z,90.34
2022-09-24T05:08:02.661Z,90.95
2022-09-24T05:10:33.409Z,90.70
2022-09-24T05:13:02.688Z,90.53
2022-09-24T05:15:30.970Z,90.82
2022-09-24T05:17:59.545Z,90.82
2022-09-24T05:20:29.141Z,91.05
2022-09-24T05:22:57.359Z,91.34
2022-09-24T05:25:25.703Z,90.67
2022-09-24T05:27:55.003Z,90.84
2022-09-24T05:30:26.214Z,90.82
2022-09-24T05:32:54.353Z,90.90
2022-09-24T05:35:24.603Z,90.95
2022-09-24T05:37:54.243Z,91.08
2022-09-24T05:40:40.937Z,91.42
2022-09-24T05:43:09.279Z,91.46
2022-09-24T05:45:37.677Z,91.59
2022-09-24T05:48:05.903Z,91.10
2022-09-24T05:50:34.836Z,91.32
2022-09-24T05:53:06.130Z,91.81
2022-09-24T05:55:34.613Z,91.70
2022-09-24T05:58:07.273Z,91.43
2022-09-24T06:00:36.733Z,91.54
2022-09-24T06:03:12.936Z,91.48
2022-09-24T06:05:46.074Z,91.38
2022-09-24T06:08:17.079Z,91.92
2022-09-24T06:10:47.150Z,91.65
2022-09-24T06:13:21.174Z,92.22
2022-09-24T06:15:49.404Z,91.59
2022-09-24T06:18:17.672Z,92.18
2022-09-24T06:20:46.974Z,92.00
2022-09-24T06:23:16.502Z,91.54
2022-09-24T06:25:44.646Z,92.05
2022-09-24T06:28:12.731Z,92.10
2022-09-24T06:30:41.385Z,91.81
2022-09-24T06:33:12.390Z,91.94
2022-09-24T06:35:43.477Z,91.75
2022-09-24T06:38:14.750Z,91.91
2022-09-24T06:40:47.168Z,91.50
2022-09-24T06:43:18.193Z,91.83
2022-09-24T06:45:47.005Z,92.00
2022-09-24T06:48:15.957Z,91.93
2022-09-24T06:50:47.698Z,92.14
2022-09-24T06:53:17.314Z,91.74
2022-09-24T06:55:47.460Z,91.70
2022-09-24T06:58:19.403Z,91.93
2022-09-24T07:00:54.403Z,92.34
2022-09-24T07:03:23.739Z,91.76
2022-09-24T07:05:52.220Z,92.14
2022-09-24T07:08:20.552Z,91.94
2022-09-24T07:10:52.621Z,92.32
2022-09-24T07:13:22.428Z,92.12
2022-09-24T07:15:52.388Z,92.34
2022-09-24T07:18:21.698Z,92.50
2022-09-24T07:20:54.518Z,92.77
2022-09-24T07:23:23.579Z,92.31
2022-09-24T07:25:57.996Z,92.37
2022-09-24T07:28:26.907Z,92.66
2022-09-24T07:31:00.437Z,92.99
2022-09-24T07:33:29.297Z,92.49
2022-09-24T07:35:57.666Z,92.52
2022-09-24T07:38:29.623Z,92.24
2022-09-24T07:41:00.484Z,92.36
2022-09-24T07:43:29.196Z,92.38
2022-09-24T07:45:58.306Z,92.14
2022-09-24T07:48:26.918Z,92.72
2022-09-24T07:50:55.997Z,92.28
2022-09-24T07:53:24.759Z,92.56
2022-09-24T07:55:53.132Z,92.69
2022-09-24T07:58:24.947Z,92.39
2022-09-24T08:00:53.424Z,92.64
2022-09-24T08:03:22.780Z,92.53
2022-09-24T08:05:52.051Z,92.31
2022-09-24T08:08:20.793Z,92.27
2022-09-24T08:10:49.385Z,92.78
2022-09-24T08:13:17.902Z,92.69
2022-09-24T08:15:47.689Z,92.58
2022-09-24T08:18:16.621Z,92.35
2022-09-24T08:20:45.026Z,92.37
2022-09-24T08:23:13.404Z,92.15
2022-09-24T08:25:41.735Z,92.00
2022-09-24T08:28:12.146Z,91.82
2022-09-24T08:30:41.503Z,91.47
2022-09-24T08:33:13.269Z,91.44
2022-09-24T08:35:41.623Z,91.28
2022-09-24T08:38:10.517Z,90.86
2022-09-24T08:40:44.524Z,90.40
2022-09-24T08:43:29.210Z,90.08
2022-09-24T08:46:22.991Z,89.45
2022-09-24T08:48:56.405Z,89.46
2022-09-24T08:51:24.823Z,89.02
2022-09-24T08:54:00.027Z,88.71
2022-09-24T08:56:32.257Z,88.64
2022-09-24T08:59:03.418Z,87.62
2022-09-24T09:01:41.033Z,87.83
2022-09-24T09:04:27.655Z,87.58
2022-09-24T09:07:12.434Z,87.22
2022-09-24T09:09:48.350Z,87.10
2022-09-24T09:12:22.547Z,86.88
2022-09-24T09:14:57.340Z,86.96
2022-09-24T09:17:38.011Z,86.76
2022-09-24T09:20:17.510Z,86.73
2022-09-24T09:22:49.664Z,86.29
2022-09-24T09:25:25.480Z,86.37
2022-09-24T09:28:01.977Z,86.16
2022-09-24T09:30:43.466Z,86.05
2022-09-24T09:33:28.484Z,85.86
2022-09-24T09:36:06.230Z,85.52
2022-09-24T09:38:42.811Z,85.60
2022-09-24T09:41:22.203Z,85.51
2022-09-24T09:43:50.847Z,85.30
2022-09-24T09:46:27.378Z,85.34
2022-09-24T09:49:01.525Z,85.09
2022-09-24T09:51:39.481Z,84.92
2022-09-24T09:54:07.931Z,84.74
2022-09-24T09:56:43.606Z,84.95
2022-09-24T09:59:25.784Z,84.80
2022-09-24T10:01:57.704Z,84.80
2022-09-24T10:04:37.341Z,84.62
2022-09-24T10:07:10.223Z,84.61
2022-09-24T10:09:39.234Z,84.50
2022-09-24T10:12:17.435Z,84.53
2022-09-24T10:14:46.365Z,84.43
2022-09-24T10:17:19.533Z,84.51
2022-09-24T10:19:50.934Z,84.51
2022-09-24T10:22:25.802Z,84.59
2022-09-24T10:24:55.984Z,84.40
2022-09-24T10:27:34.098Z,84.16
2022-09-24T10:30:23.727Z,83.95
2022-09-24T10:32:59.010Z,83.73
2022-09-24T10:35:30.878Z,83.79
2022-09-24T10:38:02.211Z,83.53
2022-09-24T10:40:33.054Z,83.30
2022-09-24T10:43:03.467Z,83.25
2022-09-24T10:46:01.538Z,83.23
2022-09-24T10:48:37.207Z,83.79
2022-09-24T10:51:17.822Z,83.08
2022-09-24T10:54:00.952Z,83.02
2022-09-24T10:56:39.890Z,82.65
2022-09-24T10:59:46.449Z,82.62
2022-09-24T11:02:48.612Z,82.65
2022-09-24T11:05:23.028Z,82.46
2022-09-24T11:08:08.528Z,82.23
2022-09-24T11:11:11.434Z,82.40
2022-09-24T11:13:51.626Z,82.48
2022-09-24T11:16:44.820Z,82.37
2022-09-24T11:19:33.253Z,82.08
2022-09-24T11:22:12.370Z,82.35
2022-09-24T11:24:57.351Z,82.14
2022-09-24T11:27:43.022Z,82.24
2022-09-24T11:30:15.258Z,81.92
2022-09-24T11:33:05.406Z,82.11
2022-09-24T11:36:22.920Z,81.97
2022-09-24T11:39:15.063Z,82.33
2022-09-24T11:41:55.391Z,82.31
2022-09-24T11:45:25.136Z,82.39
2022-09-24T11:48:19.743Z,82.37
2022-09-24T11:51:02.668Z,82.13
2022-09-24T11:53:41.173Z,82.27
2022-09-24T11:56:18.620Z,82.18
2022-09-24T11:58:53.589Z,82.07
2022-09-24T12:01:28.713Z,82.09
2022-09-24T12:04:03.557Z,81.68
2022-09-24T12:06:39.413Z,81.46
2022-09-24T12:09:19.224Z,81.47
2022-09-24T12:11:52.305Z,81.01
2022-09-24T12:14:25.206Z,81.01
2022-09-24T12:17:02.036Z,80.87
2022-09-24T12:19:37.864Z,80.85
2022-09-24T12:22:07.155Z,80.78
2022-09-24T12:24:40.418Z,80.91
2022-09-24T12:27:15.695Z,80.64
2022-09-24T12:30:10.234Z,80.62
2022-09-24T12:32:57.811Z,80.51
2022-09-24T12:35:43.845Z,80.41
2022-09-24T12:38:16.775Z,80.37
2022-09-24T12:41:18.775Z,79.91
2022-09-24T12:43:52.455Z,80.11
2022-09-24T12:46:24.237Z,80.05
2022-09-24T12:48:55.431Z,79.97
2022-09-24T12:51:24.339Z,80.40
2022-09-24T12:54:09.147Z,80.66
2022-09-24T12:56:37.634Z,80.67
2022-09-24T12:59:06.008Z,80.75
2022-09-24T13:01:35.764Z,80.87
2022-09-24T13:04:30.415Z,80.86
2022-09-24T13:06:58.831Z,81.11
2022-09-24T13:09:37.307Z,81.21
2022-09-24T13:12:21.742Z,81.08
2022-09-24T13:14:57.974Z,81.17
2022-09-24T13:17:26.444Z,81.32
2022-09-24T13:20:01.069Z,81.72
2022-09-24T13:22:32.373Z,81.46
2022-09-24T13:25:23.867Z,81.63
2022-09-24T13:28:02.763Z,81.54
2022-09-24T13:30:39.265Z,81.37
2022-09-24T13:33:24.055Z,81.72
2022-09-24T13:36:12.755Z,81.59
2022-09-24T13:38:50.414Z,81.60
2022-09-24T13:41:34.184Z,81.65
2022-09-24T13:44:06.944Z,81.62
2022-09-24T13:46:37.985Z,81.59
2022-09-24T13:49:12.905Z,81.58
2022-09-24T13:51:45.327Z,81.46
2022-09-24T13:54:22.862Z,81.20
2022-09-24T13:57:00.839Z,80.94
2022-09-24T13:59:30.920Z,81.00
2022-09-24T14:01:59.523Z,81.26
2022-09-24T14:04:28.092Z,80.94
2022-09-24T14:06:59.844Z,80.90
2022-09-24T14:09:31.576Z,81.12
2022-09-24T14:12:03.319Z,80.41
2022-09-24T14:14:35.771Z,80.53
2022-09-24T14:17:15.101Z,80.27
2022-09-24T14:19:44.059Z,79.93
2022-09-24T14:22:21.445Z,79.80
2022-09-24T14:24:56.323Z,79.79
2022-09-24T14:27:27.627Z,79.75
2022-09-24T14:29:59.406Z,79.47
2022-09-24T14:32:32.270Z,79.56
2022-09-24T14:35:03.076Z,79.57
2022-09-24T14:37:37.338Z,79.50
2022-09-24T14:40:14.456Z,79.75
2022-09-24T14:42:48.185Z,79.95
2022-09-24T14:45:22.706Z,79.91
2022-09-24T14:48:02.406Z,80.01
2022-09-24T14:50:39.882Z,79.99
2022-09-24T14:53:26.407Z,80.02
2022-09-24T14:55:55.319Z,79.86
2022-09-24T14:58:26.233Z,79.33
2022-09-24T15:00:57.532Z,79.38
2022-09-24T15:03:33.725Z,79.24
2022-09-24T15:06:19.618Z,79.20
2022-09-24T15:08:59.107Z,79.10
2022-09-24T15:11:30.212Z,79.21
2022-09-24T15:14:04.792Z,78.91
2022-09-24T15:16:35.970Z,79.03
2022-09-24T15:19:19.564Z,78.98
2022-09-24T15:21:49.730Z,79.01
2022-09-24T15:24:21.598Z,78.58
2022-09-24T15:27:02.551Z,78.69
2022-09-24T15:29:31.242Z,78.27
2022-09-24T15:31:59.956Z,78.36
2022-09-24T15:34:29.061Z,77.87
2022-09-24T15:37:00.632Z,77.80
2022-09-24T15:39:32.071Z,77.56
2022-09-24T15:42:00.925Z,77.47
2022-09-24T15:44:33.827Z,77.20
2022-09-24T15:47:02.665Z,76.89
2022-09-24T15:49:31.380Z,77.06
2022-09-24T15:52:04.310Z,77.16
2022-09-24T15:54:34.192Z,77.39
2022-09-24T15:57:02.840Z,77.29
2022-09-24T15:59:31.556Z,77.29
2022-09-24T16:02:03.684Z,77.58
2022-09-24T16:04:32.358Z,77.76
2022-09-24T16:07:00.760Z,77.91
2022-09-24T16:09:29.152Z,77.67
2022-09-24T16:11:58.880Z,78.19
2022-09-24T16:14:27.286Z,79.37
2022-09-24T16:16:56.341Z,79.63
2022-09-24T16:19:25.121Z,80.22
2022-09-24T16:21:53.538Z,80.54
2022-09-24T16:24:22.196Z,81.04
2022-09-24T16:26:50.494Z,81.46
2022-09-24T16:29:20.730Z,81.71
2022-09-24T16:31:49.593Z,82.66
2022-09-24T16:34:18.090Z,82.78
2022-09-24T16:36:46.682Z,82.44
2022-09-24T16:39:16.032Z,83.65
2022-09-24T16:41:44.969Z,83.61
2022-09-24T16:44:15.051Z,84.18
2022-09-24T16:46:45.575Z,83.41
2022-09-24T16:49:14.138Z,83.73
2022-09-24T16:51:42.503Z,83.78
2022-09-24T16:54:12.410Z,84.35
2022-09-24T16:56:41.316Z,83.89
2022-09-24T16:59:11.865Z,83.84
2022-09-24T17:01:42.594Z,84.64
2022-09-24T17:04:13.455Z,84.40
2022-09-24T17:06:44.558Z,84.14
2022-09-24T17:09:30.480Z,84.80
2022-09-24T17:11:59.054Z,84.64
2022-09-24T17:14:27.530Z,84.82
2022-09-24T17:16:59.884Z,84.59
2022-09-24T17:19:29.662Z,84.83
2022-09-24T17:22:00.143Z,85.08
2022-09-24T17:24:28.788Z,85.46
2022-09-24T17:26:57.713Z,85.64
2022-09-24T17:29:31.106Z,85.25
2022-09-24T17:32:00.042Z,85.66
2022-09-24T17:34:29.863Z,85.65
2022-09-24T17:36:59.754Z,85.78
2022-09-24T17:39:30.759Z,85.45
2022-09-24T17:41:59.197Z,85.61
2022-09-24T17:44:27.531Z,86.26
2022-09-24T17:46:56.133Z,86.38
2022-09-24T17:49:24.731Z,86.67
2022-09-24T17:51:54.606Z,86.20
2022-09-24T17:54:24.232Z,86.52
2022-09-24T17:56:52.561Z,86.41
2022-09-24T17:59:26.260Z,86.96
2022-09-24T18:01:55.559Z,86.82
2022-09-24T18:04:25.748Z,86.99
2022-09-24T18:06:55.571Z,86.97
2022-09-24T18:09:23.910Z,87.23
2022-09-24T18:11:53.682Z,87.09
2022-09-24T18:14:23.872Z,87.18
2022-09-24T18:16:53.486Z,87.41
2022-09-24T18:19:22.709Z,87.02
2022-09-24T18:21:51.046Z,87.65
2022-09-24T18:24:20.810Z,87.23
2022-09-24T18:26:51.814Z,87.61
2022-09-24T18:29:21.476Z,87.38
2022-09-24T18:31:51.396Z,87.83
2022-09-24T18:34:19.867Z,87.41
2022-09-24T18:36:48.062Z,88.04
2022-09-24T18:39:23.850Z,88.01
2022-09-24T18:41:54.722Z,87.47
2022-09-24T18:44:23.252Z,87.93
2022-09-24T18:46:51.490Z,87.99
2022-09-24T18:49:21.696Z,88.14
2022-09-24T18:51:52.012Z,87.74
2022-09-24T18:54:20.291Z,88.43
2022-09-24T18:56:48.742Z,88.06
2022-09-24T18:59:20.770Z,88.39
2022-09-24T19:01:50.756Z,88.44
2022-09-24T19:04:20.054Z,87.85
2022-09-24T19:06:49.857Z,87.97
2022-09-24T19:09:20.232Z,87.80
2022-09-24T19:11:50.224Z,87.77
2022-09-24T19:14:19.808Z,87.48
2022-09-24T19:16:48.343Z,86.99
2022-09-24T19:19:16.907Z,87.43
2022-09-24T19:21:45.253Z,86.60
2022-09-24T19:24:13.471Z,87.38
2022-09-24T19:26:41.589Z,86.77
2022-09-24T19:29:09.806Z,86.63
2022-09-24T19:31:41.904Z,87.21
2022-09-24T19:34:14.216Z,86.82
2022-09-24T19:36:44.880Z,86.63
2022-09-24T19:39:15.552Z,86.85
2022-09-24T19:41:44.389Z,86.59
2022-09-24T19:44:12.864Z,86.77
2022-09-24T19:46:42.763Z,86.85
2022-09-24T19:49:11.023Z,86.97
2022-09-24T19:51:40.452Z,87.08
2022-09-24T19:54:14.104Z,86.88
2022-09-24T19:56:42.762Z,86.54
2022-09-24T19:59:14.865Z,86.43
2022-09-24T20:01:48.798Z,86.98
2022-09-24T20:04:17.419Z,86.58
2022-09-24T20:06:45.642Z,86.53
2022-09-24T20:09:13.987Z,86.81
2022-09-24T20:11:42.580Z,86.77
2022-09-24T20:14:11.369Z,86.70
2022-09-24T20:16:42.651Z,86.83
2022-09-24T20:19:15.847Z,86.84
2022-09-24T20:21:44.214Z,86.79
2022-09-24T20:24:13.599Z,86.67
2022-09-24T20:26:59.178Z,86.76
2022-09-24T20:29:27.513Z,87.09
2022-09-24T20:31:56.865Z,86.85
2022-09-24T20:34:33.884Z,86.96
2022-09-24T20:37:03.307Z,87.02
2022-09-24T20:39:32.559Z,87.11
2022-09-24T20:42:02.114Z,87.09
2022-09-24T20:44:30.705Z,87.28
2022-09-24T20:46:59.094Z,87.27
2022-09-24T20:49:29.760Z,87.42
2022-09-24T20:51:58.332Z,87.17
2022-09-24T20:54:28.596Z,87.13
2022-09-24T20:56:57.137Z,87.42
2022-09-24T20:59:26.562Z,87.17
2022-09-24T21:01:55.538Z,87.69
2022-09-24T21:04:24.773Z,87.06
2022-09-24T21:06:55.515Z,87.73
2022-09-24T21:09:23.808Z,87.75
2022-09-24T21:11:54.713Z,87.58
2022-09-24T21:14:23.575Z,87.35
2022-09-24T21:16:54.162Z,87.82
2022-09-24T21:19:22.614Z,87.59
2022-09-24T21:21:52.087Z,87.78
2022-09-24T21:24:25.212Z,87.74
2022-09-24T21:27:00.073Z,88.07
2022-09-24T21:29:28.292Z,87.73
2022-09-24T21:31:56.469Z,87.81
2022-09-24T21:34:24.619Z,88.30
2022-09-24T21:36:53.597Z,88.14
2022-09-24T21:39:24.522Z,87.88
2022-09-24T21:41:54.878Z,87.96
2022-09-24T21:44:23.057Z,87.83
2022-09-24T21:46:52.183Z,87.83
2022-09-24T21:49:21.288Z,88.12
2022-09-24T21:51:50.637Z,88.42
2022-09-24T21:54:19.725Z,88.27
2022-09-24T21:56:49.671Z,88.10
2022-09-24T21:59:40.690Z,88.42
2022-09-24T22:02:10.199Z,87.92
2022-09-24T22:04:39.115Z,88.19
2022-09-24T22:07:07.649Z,87.89
2022-09-24T22:09:35.950Z,88.00
2022-09-24T22:12:06.677Z,88.43
2022-09-24T22:14:35.099Z,87.89
2022-09-24T22:17:03.865Z,88.10
2022-09-24T22:19:32.279Z,87.96
2022-09-24T22:22:00.511Z,88.24
2022-09-24T22:24:28.913Z,88.15
2022-09-24T22:26:57.619Z,88.17
2022-09-24T22:29:27.162Z,88.23
2022-09-24T22:31:55.405Z,88.28
2022-09-24T22:34:41.169Z,87.87
2022-09-24T22:37:09.309Z,88.50
2022-09-24T22:39:37.422Z,88.63
2022-09-24T22:42:06.227Z,89.06
2022-09-24T22:44:35.739Z,88.37
2022-09-24T22:47:03.813Z,89.26
2022-09-24T22:49:32.640Z,89.07
2022-09-24T22:52:00.879Z,89.16
2022-09-24T22:54:28.980Z,88.33
2022-09-24T22:56:57.054Z,88.30
2022-09-24T22:59:25.140Z,88.14
2022-09-24T23:01:54.835Z,88.57
2022-09-24T23:04:23.735Z,89.04
2022-09-24T23:06:51.842Z,88.42
2022-09-24T23:09:20.656Z,88.64
2022-09-24T23:11:49.951Z,89.01
2022-09-24T23:14:18.270Z,88.76
2022-09-24T23:16:46.811Z,88.27
2022-09-24T23:19:19.692Z,88.49
2022-09-24T23:21:48.162Z,88.47
2022-09-24T23:24:18.940Z,88.56
2022-09-24T23:26:47.596Z,88.09
2022-09-24T23:29:16.713Z,88.66
2022-09-24T23:31:44.818Z,88.57
2022-09-24T23:34:14.671Z,89.25
2022-09-24T23:36:46.115Z,89.18
2022-09-24T23:39:14.648Z,89.20
2022-09-24T23:41:42.872Z,89.24
2022-09-24T23:44:11.328Z,89.35
2022-09-24T23:46:39.603Z,89.86
2022-09-24T23:49:07.739Z,89.17
2022-09-24T23:51:36.060Z,90.28
2022-09-24T23:54:06.259Z,89.94
2022-09-24T23:56:34.427Z,89.60
2022-09-24T23:59:02.544Z,90.25
